sensor_id;sensor_type;location;lat;lon;timestamp;pressure;altitude;pressure_sealevel;temperature;humidity
15646;BME280;7922;43.622;1.476;2024-03-07T00:00:33;100176.69;;;4.46;100.00
15646;BME280;7922;43.622;1.476;2024-03-07T00:02:58;100077.03;;;3.88;100.00
15646;BME280;7922;43.622;1.476;2024-03-07T00:05:24;100112.59;;;4.07;100.00
15646;BME280;7922;43.622;1.476;2024-03-07T00:07:50;100215.78;;;4.65;100.00
15646;BME280;7922;43.622;1.476;2024-03-07T00:10:15;100197.63;;;4.51;100.00
15646;BME280;7922;43.622;1.476;2024-03-07T00:12:41;100182.84;;;4.47;100.00
15646;BME280;7922;43.622;1.476;2024-03-07T00:15:11;100214.19;;;4.54;100.00
15646;BME280;7922;43.622;1.476;2024-03-07T00:17:37;100185.47;;;4.45;100.00
15646;BME280;7922;43.622;1.476;2024-03-07T00:20:03;100184.66;;;4.42;100.00
15646;BME280;7922;43.622;1.476;2024-03-07T00:22:29;100195.91;;;4.48;100.00
15646;BME280;7922;43.622;1.476;2024-03-07T00:24:54;100195.97;;;4.45;100.00
15646;BME280;7922;43.622;1.476;2024-03-07T00:27:19;100152.72;;;4.12;100.00
15646;BME280;7922;43.622;1.476;2024-03-07T00:29:44;100172.75;;;4.18;100.00
15646;BME280;7922;43.622;1.476;2024-03-07T00:32:10;100168.28;;;4.24;100.00
15646;BME280;7922;43.622;1.476;2024-03-07T00:34:35;100157.06;;;4.13;100.00
15646;BME280;7922;43.622;1.476;2024-03-07T00:37:00;100183.94;;;4.30;100.00
15646;BME280;7922;43.622;1.476;2024-03-07T00:39:26;100027.09;;;3.35;100.00
15646;BME280;7922;43.622;1.476;2024-03-07T00:41:51;100158.72;;;4.20;100.00
15646;BME280;7922;43.622;1.476;2024-03-07T00:44:17;100216.94;;;4.47;100.00
15646;BME280;7922;43.622;1.476;2024-03-07T00:46:42;100210.84;;;4.45;100.00
15646;BME280;7922;43.622;1.476;2024-03-07T00:49:08;100032.25;;;3.41;100.00
15646;BME280;7922;43.622;1.476;2024-03-07T00:51:34;100001.97;;;3.20;100.00
15646;BME280;7922;43.622;1.476;2024-03-07T00:53:59;100140.66;;;4.00;100.00
15646;BME280;7922;43.622;1.476;2024-03-07T00:56:25;100089.38;;;3.79;100.00
15646;BME280;7922;43.622;1.476;2024-03-07T00:58:51;100179.63;;;4.26;100.00
15646;BME280;7922;43.622;1.476;2024-03-07T01:01:17;100139.72;;;4.03;100.00
15646;BME280;7922;43.622;1.476;2024-03-07T01:03:42;100132.06;;;3.89;100.00
15646;BME280;7922;43.622;1.476;2024-03-07T01:06:08;100073.13;;;3.51;100.00
15646;BME280;7922;43.622;1.476;2024-03-07T01:08:33;100146.03;;;3.90;100.00
15646;BME280;7922;43.622;1.476;2024-03-07T01:10:58;100168.56;;;4.04;100.00
15646;BME280;7922;43.622;1.476;2024-03-07T01:13:24;100130.34;;;3.86;100.00
15646;BME280;7922;43.622;1.476;2024-03-07T01:15:49;100156.28;;;4.06;100.00
15646;BME280;7922;43.622;1.476;2024-03-07T01:18:15;100044.47;;;3.42;100.00
15646;BME280;7922;43.622;1.476;2024-03-07T01:20:40;100099.19;;;3.62;100.00
15646;BME280;7922;43.622;1.476;2024-03-07T01:23:06;100095.72;;;3.61;100.00
15646;BME280;7922;43.622;1.476;2024-03-07T01:25:31;100129.50;;;3.83;100.00
15646;BME280;7922;43.622;1.476;2024-03-07T01:28:00;99996.00;;;3.09;100.00
15646;BME280;7922;43.622;1.476;2024-03-07T01:30:26;99919.81;;;2.62;100.00
15646;BME280;7922;43.622;1.476;2024-03-07T01:32:51;100109.47;;;3.79;100.00
15646;BME280;7922;43.622;1.476;2024-03-07T01:35:16;100056.66;;;3.43;100.00
15646;BME280;7922;43.622;1.476;2024-03-07T01:37:42;100004.63;;;3.17;100.00
15646;BME280;7922;43.622;1.476;2024-03-07T01:40:07;100062.66;;;3.51;100.00
15646;BME280;7922;43.622;1.476;2024-03-07T01:42:33;100115.63;;;3.78;100.00
15646;BME280;7922;43.622;1.476;2024-03-07T01:44:58;100080.03;;;3.60;100.00
15646;BME280;7922;43.622;1.476;2024-03-07T01:47:24;100019.41;;;3.21;100.00
15646;BME280;7922;43.622;1.476;2024-03-07T01:49:49;100090.50;;;3.60;100.00
15646;BME280;7922;43.622;1.476;2024-03-07T01:52:14;100054.97;;;3.39;100.00
15646;BME280;7922;43.622;1.476;2024-03-07T01:54:40;100074.91;;;3.51;100.00
15646;BME280;7922;43.622;1.476;2024-03-07T01:57:07;100079.19;;;3.58;100.00
15646;BME280;7922;43.622;1.476;2024-03-07T01:59:33;100056.72;;;3.37;100.00
15646;BME280;7922;43.622;1.476;2024-03-07T02:01:59;100051.53;;;3.35;100.00
15646;BME280;7922;43.622;1.476;2024-03-07T02:04:24;100083.63;;;3.51;100.00
15646;BME280;7922;43.622;1.476;2024-03-07T02:06:50;100107.06;;;3.62;100.00
15646;BME280;7922;43.622;1.476;2024-03-07T02:09:15;100089.75;;;3.50;100.00
15646;BME280;7922;43.622;1.476;2024-03-07T02:11:41;100062.88;;;3.34;100.00
15646;BME280;7922;43.622;1.476;2024-03-07T02:14:06;99914.78;;;2.42;100.00
15646;BME280;7922;43.622;1.476;2024-03-07T02:16:31;100089.81;;;3.46;100.00
15646;BME280;7922;43.622;1.476;2024-03-07T02:18:57;99944.28;;;2.54;100.00
15646;BME280;7922;43.622;1.476;2024-03-07T02:21:22;99931.25;;;2.52;100.00
15646;BME280;7922;43.622;1.476;2024-03-07T02:23:48;100019.63;;;3.03;100.00
15646;BME280;7922;43.622;1.476;2024-03-07T02:26:13;100026.53;;;3.08;100.00
15646;BME280;7922;43.622;1.476;2024-03-07T02:28:38;100017.78;;;3.11;100.00
15646;BME280;7922;43.622;1.476;2024-03-07T02:31:03;100010.06;;;3.02;100.00
15646;BME280;7922;43.622;1.476;2024-03-07T02:33:29;99997.91;;;2.95;100.00
15646;BME280;7922;43.622;1.476;2024-03-07T02:35:54;100018.66;;;3.08;100.00
15646;BME280;7922;43.622;1.476;2024-03-07T02:38:19;100004.78;;;3.03;100.00
15646;BME280;7922;43.622;1.476;2024-03-07T02:40:45;100000.41;;;3.04;100.00
15646;BME280;7922;43.622;1.476;2024-03-07T02:43:10;99880.06;;;2.33;100.00
15646;BME280;7922;43.622;1.476;2024-03-07T02:45:36;99957.16;;;2.74;100.00
15646;BME280;7922;43.622;1.476;2024-03-07T02:48:01;99971.06;;;2.76;100.00
15646;BME280;7922;43.622;1.476;2024-03-07T02:50:26;100000.53;;;2.93;100.00
15646;BME280;7922;43.622;1.476;2024-03-07T02:52:52;100022.97;;;3.14;100.00
15646;BME280;7922;43.622;1.476;2024-03-07T02:55:17;99997.03;;;2.96;100.00
15646;BME280;7922;43.622;1.476;2024-03-07T02:57:42;100002.19;;;3.02;100.00
15646;BME280;7922;43.622;1.476;2024-03-07T03:00:08;99894.75;;;2.41;100.00
15646;BME280;7922;43.622;1.476;2024-03-07T03:02:34;99998.84;;;2.91;100.00
15646;BME280;7922;43.622;1.476;2024-03-07T03:04:59;99959.72;;;2.78;100.00
15646;BME280;7922;43.622;1.476;2024-03-07T03:07:24;99967.59;;;2.77;100.00
15646;BME280;7922;43.622;1.476;2024-03-07T03:09:49;99965.00;;;2.74;100.00
15646;BME280;7922;43.622;1.476;2024-03-07T03:12:15;99972.75;;;2.83;100.00
15646;BME280;7922;43.622;1.476;2024-03-07T03:14:40;99817.69;;;1.99;100.00
15646;BME280;7922;43.622;1.476;2024-03-07T03:17:05;99941.53;;;2.68;100.00
15646;BME280;7922;43.622;1.476;2024-03-07T03:19:30;99903.44;;;2.45;100.00
15646;BME280;7922;43.622;1.476;2024-03-07T03:21:56;99941.63;;;2.61;100.00
15646;BME280;7922;43.622;1.476;2024-03-07T03:24:22;99924.25;;;2.54;100.00
15646;BME280;7922;43.622;1.476;2024-03-07T03:26:47;99962.41;;;2.71;100.00
15646;BME280;7922;43.622;1.476;2024-03-07T03:29:12;99882.66;;;2.33;100.00
15646;BME280;7922;43.622;1.476;2024-03-07T03:31:38;99781.38;;;1.73;100.00
15646;BME280;7922;43.622;1.476;2024-03-07T03:34:03;99964.88;;;2.83;100.00
15646;BME280;7922;43.622;1.476;2024-03-07T03:36:28;99722.56;;;1.37;100.00
15646;BME280;7922;43.622;1.476;2024-03-07T03:38:53;99845.44;;;2.09;100.00
15646;BME280;7922;43.622;1.476;2024-03-07T03:41:19;99857.59;;;2.15;100.00
15646;BME280;7922;43.622;1.476;2024-03-07T03:43:44;99925.97;;;2.54;100.00
15646;BME280;7922;43.622;1.476;2024-03-07T03:46:12;99915.56;;;2.52;100.00
15646;BME280;7922;43.622;1.476;2024-03-07T03:48:39;99918.13;;;2.57;100.00
15646;BME280;7922;43.622;1.476;2024-03-07T03:51:04;99934.56;;;2.67;100.00
15646;BME280;7922;43.622;1.476;2024-03-07T03:53:31;99887.84;;;2.37;100.00
15646;BME280;7922;43.622;1.476;2024-03-07T03:55:56;99904.34;;;2.41;100.00
15646;BME280;7922;43.622;1.476;2024-03-07T03:58:22;99871.44;;;2.23;100.00
15646;BME280;7922;43.622;1.476;2024-03-07T04:00:47;99946.75;;;2.68;100.00
15646;BME280;7922;43.622;1.476;2024-03-07T04:03:12;99944.19;;;2.63;100.00
15646;BME280;7922;43.622;1.476;2024-03-07T04:05:37;99962.38;;;2.77;100.00
15646;BME280;7922;43.622;1.476;2024-03-07T04:08:03;99856.78;;;2.07;100.00
15646;BME280;7922;43.622;1.476;2024-03-07T04:10:29;99905.31;;;2.31;100.00
15646;BME280;7922;43.622;1.476;2024-03-07T04:12:54;99922.59;;;2.46;100.00
15646;BME280;7922;43.622;1.476;2024-03-07T04:15:20;99931.31;;;2.45;100.00
15646;BME280;7922;43.622;1.476;2024-03-07T04:17:45;99777.19;;;1.57;100.00
15646;BME280;7922;43.622;1.476;2024-03-07T04:20:10;99923.53;;;2.38;100.00
15646;BME280;7922;43.622;1.476;2024-03-07T04:22:37;99867.19;;;2.10;100.00
15646;BME280;7922;43.622;1.476;2024-03-07T04:25:03;99950.34;;;2.57;100.00
15646;BME280;7922;43.622;1.476;2024-03-07T04:27:28;99727.84;;;1.32;100.00
15646;BME280;7922;43.622;1.476;2024-03-07T04:29:54;99949.53;;;2.55;100.00
15646;BME280;7922;43.622;1.476;2024-03-07T04:32:19;99932.19;;;2.45;100.00
15646;BME280;7922;43.622;1.476;2024-03-07T04:34:45;99886.13;;;2.33;100.00
15646;BME280;7922;43.622;1.476;2024-03-07T04:37:10;99886.94;;;2.40;100.00
15646;BME280;7922;43.622;1.476;2024-03-07T04:39:36;99881.78;;;2.32;100.00
15646;BME280;7922;43.622;1.476;2024-03-07T04:42:05;99815.13;;;1.96;100.00
15646;BME280;7922;43.622;1.476;2024-03-07T04:44:32;99932.06;;;2.56;100.00
15646;BME280;7922;43.622;1.476;2024-03-07T04:46:59;99925.09;;;2.56;100.00
15646;BME280;7922;43.622;1.476;2024-03-07T04:49:25;99729.47;;;1.44;100.00
15646;BME280;7922;43.622;1.476;2024-03-07T04:51:51;99870.50;;;2.30;100.00
15646;BME280;7922;43.622;1.476;2024-03-07T04:54:17;99765.72;;;1.73;100.00
15646;BME280;7922;43.622;1.476;2024-03-07T04:56:44;99782.25;;;1.75;100.00
15646;BME280;7922;43.622;1.476;2024-03-07T04:59:09;99713.00;;;1.39;100.00
15646;BME280;7922;43.622;1.476;2024-03-07T05:01:34;99833.22;;;2.14;100.00
15646;BME280;7922;43.622;1.476;2024-03-07T05:04:00;99761.41;;;1.69;100.00
15646;BME280;7922;43.622;1.476;2024-03-07T05:06:25;99874.00;;;2.29;100.00
15646;BME280;7922;43.622;1.476;2024-03-07T05:08:50;99871.28;;;2.35;100.00
15646;BME280;7922;43.622;1.476;2024-03-07T05:11:16;99879.16;;;2.34;100.00
15646;BME280;7922;43.622;1.476;2024-03-07T05:13:41;99810.84;;;1.87;100.00
15646;BME280;7922;43.622;1.476;2024-03-07T05:16:06;99853.22;;;2.15;100.00
15646;BME280;7922;43.622;1.476;2024-03-07T05:18:31;99784.03;;;1.67;100.00
15646;BME280;7922;43.622;1.476;2024-03-07T05:20:57;99874.78;;;2.34;100.00
15646;BME280;7922;43.622;1.476;2024-03-07T05:23:22;99652.38;;;1.11;100.00
15646;BME280;7922;43.622;1.476;2024-03-07T05:25:47;99777.72;;;1.91;100.00
15646;BME280;7922;43.622;1.476;2024-03-07T05:28:14;99836.75;;;2.09;100.00
15646;BME280;7922;43.622;1.476;2024-03-07T05:30:39;99818.53;;;2.00;100.00
15646;BME280;7922;43.622;1.476;2024-03-07T05:33:04;99664.44;;;1.23;100.00
15646;BME280;7922;43.622;1.476;2024-03-07T05:35:29;99685.22;;;1.30;100.00
15646;BME280;7922;43.622;1.476;2024-03-07T05:37:55;99882.47;;;2.50;100.00
15646;BME280;7922;43.622;1.476;2024-03-07T05:40:21;99743.94;;;1.76;100.00
15646;BME280;7922;43.622;1.476;2024-03-07T05:42:46;99679.09;;;1.36;100.00
15646;BME280;7922;43.622;1.476;2024-03-07T05:45:11;99824.47;;;2.15;100.00
15646;BME280;7922;43.622;1.476;2024-03-07T05:47:36;99840.84;;;2.31;100.00
15646;BME280;7922;43.622;1.476;2024-03-07T05:50:02;99805.34;;;2.15;100.00
15646;BME280;7922;43.622;1.476;2024-03-07T05:52:27;99837.25;;;2.41;100.00
15646;BME280;7922;43.622;1.476;2024-03-07T05:54:53;99843.28;;;2.48;100.00
15646;BME280;7922;43.622;1.476;2024-03-07T05:57:18;99827.72;;;2.37;100.00
15646;BME280;7922;43.622;1.476;2024-03-07T05:59:43;99827.69;;;2.40;100.00
15646;BME280;7922;43.622;1.476;2024-03-07T06:02:08;99831.00;;;2.55;100.00
15646;BME280;7922;43.622;1.476;2024-03-07T06:04:34;99846.53;;;2.67;100.00
15646;BME280;7922;43.622;1.476;2024-03-07T06:06:59;99730.53;;;2.08;100.00
15646;BME280;7922;43.622;1.476;2024-03-07T06:09:24;99855.81;;;2.89;100.00
15646;BME280;7922;43.622;1.476;2024-03-07T06:11:50;99882.66;;;3.04;100.00
15646;BME280;7922;43.622;1.476;2024-03-07T06:14:15;99835.03;;;2.79;100.00
15646;BME280;7922;43.622;1.476;2024-03-07T06:16:40;99861.97;;;2.87;100.00
15646;BME280;7922;43.622;1.476;2024-03-07T06:19:07;99769.25;;;2.43;100.00
15646;BME280;7922;43.622;1.476;2024-03-07T06:21:33;99718.19;;;2.17;100.00
15646;BME280;7922;43.622;1.476;2024-03-07T06:23:59;99716.41;;;2.23;100.00
15646;BME280;7922;43.622;1.476;2024-03-07T06:26:25;99674.72;;;2.10;100.00
15646;BME280;7922;43.622;1.476;2024-03-07T06:28:51;99769.84;;;2.65;100.00
15646;BME280;7922;43.622;1.476;2024-03-07T06:31:16;99866.59;;;3.31;100.00
15646;BME280;7922;43.622;1.476;2024-03-07T06:33:41;99706.53;;;2.43;100.00
15646;BME280;7922;43.622;1.476;2024-03-07T06:36:07;99823.16;;;3.20;99.95
15646;BME280;7922;43.622;1.476;2024-03-07T06:38:32;99830.81;;;3.30;99.46
15646;BME280;7922;43.622;1.476;2024-03-07T06:40:57;99846.16;;;3.53;98.69
15646;BME280;7922;43.622;1.476;2024-03-07T06:43:22;99799.38;;;3.30;97.79
15646;BME280;7922;43.622;1.476;2024-03-07T06:45:48;99872.03;;;3.73;98.02
15646;BME280;7922;43.622;1.476;2024-03-07T06:48:13;99842.47;;;3.65;97.51
15646;BME280;7922;43.622;1.476;2024-03-07T06:50:38;99836.34;;;3.66;96.67
15646;BME280;7922;43.622;1.476;2024-03-07T06:53:04;99769.59;;;3.39;96.68
15646;BME280;7922;43.622;1.476;2024-03-07T06:55:30;99840.44;;;3.82;95.98
15646;BME280;7922;43.622;1.476;2024-03-07T06:57:55;99602.69;;;2.54;95.92
15646;BME280;7922;43.622;1.476;2024-03-07T07:00:21;99846.22;;;4.01;95.72
15646;BME280;7922;43.622;1.476;2024-03-07T07:02:47;99689.56;;;3.24;94.43
15646;BME280;7922;43.622;1.476;2024-03-07T07:05:13;99877.00;;;4.38;95.46
15646;BME280;7922;43.622;1.476;2024-03-07T07:07:39;99848.13;;;4.40;94.61
15646;BME280;7922;43.622;1.476;2024-03-07T07:10:05;99837.50;;;4.47;94.39
15646;BME280;7922;43.622;1.476;2024-03-07T07:12:30;99701.81;;;3.72;92.61
15646;BME280;7922;43.622;1.476;2024-03-07T07:14:56;99838.25;;;4.52;92.92
15646;BME280;7922;43.622;1.476;2024-03-07T07:17:21;99716.16;;;3.96;92.14
15646;BME280;7922;43.622;1.476;2024-03-07T07:19:46;99853.84;;;4.60;92.02
15646;BME280;7922;43.622;1.476;2024-03-07T07:22:12;99853.50;;;4.75;91.93
15646;BME280;7922;43.622;1.476;2024-03-07T07:24:38;99888.81;;;5.02;91.33
15646;BME280;7922;43.622;1.476;2024-03-07T07:27:03;99856.53;;;4.99;90.47
15646;BME280;7922;43.622;1.476;2024-03-07T07:29:28;99854.06;;;4.91;89.83
15646;BME280;7922;43.622;1.476;2024-03-07T07:31:54;99886.41;;;5.32;89.90
15646;BME280;7922;43.622;1.476;2024-03-07T07:34:20;99842.06;;;5.20;88.52
15646;BME280;7922;43.622;1.476;2024-03-07T07:36:45;99839.22;;;5.29;88.21
15646;BME280;7922;43.622;1.476;2024-03-07T07:39:10;99673.38;;;4.37;88.79
15646;BME280;7922;43.622;1.476;2024-03-07T07:41:36;99871.69;;;5.64;88.51
15646;BME280;7922;43.622;1.476;2024-03-07T07:44:01;99775.69;;;5.13;87.75
15646;BME280;7922;43.622;1.476;2024-03-07T07:46:26;99820.91;;;5.62;87.50
15646;BME280;7922;43.622;1.476;2024-03-07T07:48:51;99719.13;;;5.01;88.50
15646;BME280;7922;43.622;1.476;2024-03-07T07:51:17;99731.59;;;5.27;86.69
15646;BME280;7922;43.622;1.476;2024-03-07T07:53:42;99817.38;;;5.98;85.80
15646;BME280;7922;43.622;1.476;2024-03-07T07:56:07;99812.88;;;6.35;81.98
15646;BME280;7922;43.622;1.476;2024-03-07T07:58:33;99856.94;;;6.89;79.29
15646;BME280;7922;43.622;1.476;2024-03-07T08:00:58;99726.81;;;6.40;76.58
15646;BME280;7922;43.622;1.476;2024-03-07T08:03:23;99804.72;;;7.03;74.45
15646;BME280;7922;43.622;1.476;2024-03-07T08:05:49;99838.59;;;7.43;73.34
15646;BME280;7922;43.622;1.476;2024-03-07T08:08:14;99851.81;;;7.70;72.52
15646;BME280;7922;43.622;1.476;2024-03-07T08:10:39;99717.91;;;7.02;71.54
15646;BME280;7922;43.622;1.476;2024-03-07T08:13:05;99667.34;;;6.90;70.80
15646;BME280;7922;43.622;1.476;2024-03-07T08:15:31;99825.69;;;7.89;69.39
15646;BME280;7922;43.622;1.476;2024-03-07T08:17:57;99844.94;;;8.17;68.65
15646;BME280;7922;43.622;1.476;2024-03-07T08:20:24;99817.56;;;8.20;68.45
15646;BME280;7922;43.622;1.476;2024-03-07T08:22:50;99806.72;;;8.28;68.24
15646;BME280;7922;43.622;1.476;2024-03-07T08:25:15;99795.31;;;8.27;67.15
15646;BME280;7922;43.622;1.476;2024-03-07T08:27:43;99836.09;;;8.68;66.33
15646;BME280;7922;43.622;1.476;2024-03-07T08:30:10;99699.75;;;8.19;66.92
15646;BME280;7922;43.622;1.476;2024-03-07T08:32:36;99812.41;;;8.89;66.04
15646;BME280;7922;43.622;1.476;2024-03-07T08:35:01;99665.53;;;8.17;65.48
15646;BME280;7922;43.622;1.476;2024-03-07T08:37:26;99812.31;;;9.14;65.35
15646;BME280;7922;43.622;1.476;2024-03-07T08:39:51;99764.13;;;8.85;64.63
15646;BME280;7922;43.622;1.476;2024-03-07T08:42:17;99774.56;;;8.88;63.61
15646;BME280;7922;43.622;1.476;2024-03-07T08:44:42;99703.13;;;8.70;63.71
15646;BME280;7922;43.622;1.476;2024-03-07T08:47:07;99665.41;;;8.66;63.24
15646;BME280;7922;43.622;1.476;2024-03-07T08:49:33;99749.41;;;9.24;63.74
15646;BME280;7922;43.622;1.476;2024-03-07T08:51:58;99632.56;;;8.73;63.12
15646;BME280;7922;43.622;1.476;2024-03-07T08:54:23;99738.91;;;9.43;61.93
15646;BME280;7922;43.622;1.476;2024-03-07T08:56:49;99767.88;;;9.88;62.62
15646;BME280;7922;43.622;1.476;2024-03-07T08:59:14;99748.31;;;9.91;61.41
15646;BME280;7922;43.622;1.476;2024-03-07T09:01:39;99779.22;;;10.31;61.39
15646;BME280;7922;43.622;1.476;2024-03-07T09:04:04;99650.97;;;9.99;60.50
15646;BME280;7922;43.622;1.476;2024-03-07T09:06:30;99734.75;;;10.77;59.88
15646;BME280;7922;43.622;1.476;2024-03-07T09:08:55;99665.38;;;10.69;59.14
15646;BME280;7922;43.622;1.476;2024-03-07T09:11:20;99722.41;;;10.95;58.35
15646;BME280;7922;43.622;1.476;2024-03-07T09:13:45;99626.22;;;10.56;58.90
15646;BME280;7922;43.622;1.476;2024-03-07T09:16:11;99738.66;;;11.06;58.15
15646;BME280;7922;43.622;1.476;2024-03-07T09:18:36;99722.50;;;10.74;58.94
15646;BME280;7922;43.622;1.476;2024-03-07T09:21:01;99774.44;;;10.78;59.12
15646;BME280;7922;43.622;1.476;2024-03-07T09:23:27;99631.16;;;10.07;60.34
15646;BME280;7922;43.622;1.476;2024-03-07T09:25:52;99747.41;;;10.51;59.98
15646;BME280;7922;43.622;1.476;2024-03-07T09:28:17;99718.34;;;10.31;59.71
15646;BME280;7922;43.622;1.476;2024-03-07T09:30:42;99716.13;;;10.59;59.75
15646;BME280;7922;43.622;1.476;2024-03-07T09:33:08;99712.97;;;10.70;58.79
15646;BME280;7922;43.622;1.476;2024-03-07T09:35:33;99717.53;;;10.85;58.91
15646;BME280;7922;43.622;1.476;2024-03-07T09:37:58;99623.81;;;10.52;59.20
15646;BME280;7922;43.622;1.476;2024-03-07T09:40:24;99672.97;;;10.76;58.64
15646;BME280;7922;43.622;1.476;2024-03-07T09:42:49;99592.44;;;10.62;59.30
15646;BME280;7922;43.622;1.476;2024-03-07T09:45:18;99711.81;;;11.48;57.74
15646;BME280;7922;43.622;1.476;2024-03-07T09:47:48;99607.91;;;10.88;58.61
15646;BME280;7922;43.622;1.476;2024-03-07T09:50:18;99591.22;;;10.69;59.30
15646;BME280;7922;43.622;1.476;2024-03-07T09:52:46;99625.88;;;10.64;57.75
15646;BME280;7922;43.622;1.476;2024-03-07T09:55:11;99663.94;;;10.80;59.30
15646;BME280;7922;43.622;1.476;2024-03-07T09:57:38;99719.47;;;11.37;57.79
15646;BME280;7922;43.622;1.476;2024-03-07T10:00:05;99684.50;;;11.46;58.04
15646;BME280;7922;43.622;1.476;2024-03-07T10:02:31;99690.56;;;11.83;57.12
15646;BME280;7922;43.622;1.476;2024-03-07T10:05:01;99607.94;;;11.40;57.58
15646;BME280;7922;43.622;1.476;2024-03-07T10:07:29;99721.66;;;11.98;57.76
15646;BME280;7922;43.622;1.476;2024-03-07T10:09:54;99605.72;;;11.48;57.79
15646;BME280;7922;43.622;1.476;2024-03-07T10:12:19;99566.38;;;11.23;56.77
15646;BME280;7922;43.622;1.476;2024-03-07T10:14:48;99716.97;;;12.03;56.34
15646;BME280;7922;43.622;1.476;2024-03-07T10:17:14;99693.72;;;11.91;56.53
15646;BME280;7922;43.622;1.476;2024-03-07T10:19:40;99708.59;;;11.94;57.19
15646;BME280;7922;43.622;1.476;2024-03-07T10:22:06;99564.66;;;11.05;56.65
15646;BME280;7922;43.622;1.476;2024-03-07T10:24:31;99627.03;;;11.29;58.07
15646;BME280;7922;43.622;1.476;2024-03-07T10:26:56;99672.88;;;11.49;58.63
15646;BME280;7922;43.622;1.476;2024-03-07T10:29:22;99662.81;;;11.55;57.90
15646;BME280;7922;43.622;1.476;2024-03-07T10:31:47;99716.88;;;12.05;57.49
15646;BME280;7922;43.622;1.476;2024-03-07T10:34:12;99698.16;;;11.91;57.35
15646;BME280;7922;43.622;1.476;2024-03-07T10:36:38;99716.41;;;12.14;57.24
15646;BME280;7922;43.622;1.476;2024-03-07T10:39:03;99594.13;;;11.16;58.29
15646;BME280;7922;43.622;1.476;2024-03-07T10:41:29;99654.53;;;11.62;56.98
15646;BME280;7922;43.622;1.476;2024-03-07T10:44:00;99675.38;;;11.87;57.05
15646;BME280;7922;43.622;1.476;2024-03-07T10:46:27;99612.44;;;11.55;56.78
15646;BME280;7922;43.622;1.476;2024-03-07T10:48:59;99717.81;;;12.37;56.88
15646;BME280;7922;43.622;1.476;2024-03-07T10:51:33;99588.31;;;11.76;56.98
15646;BME280;7922;43.622;1.476;2024-03-07T10:54:26;99643.84;;;12.14;56.66
15646;BME280;7922;43.622;1.476;2024-03-07T10:59:26;99563.41;;;11.96;56.16
15646;BME280;7922;43.622;1.476;2024-03-07T11:01:59;99674.56;;;12.51;55.76
15646;BME280;7922;43.622;1.476;2024-03-07T11:04:27;99669.03;;;12.22;56.29
15646;BME280;7922;43.622;1.476;2024-03-07T11:06:53;99642.53;;;12.05;56.07
15646;BME280;7922;43.622;1.476;2024-03-07T11:09:18;99655.63;;;11.92;56.54
15646;BME280;7922;43.622;1.476;2024-03-07T11:11:44;99664.66;;;12.06;56.54
15646;BME280;7922;43.622;1.476;2024-03-07T11:14:11;99607.84;;;11.75;58.03
15646;BME280;7922;43.622;1.476;2024-03-07T11:16:39;99558.78;;;11.33;58.28
15646;BME280;7922;43.622;1.476;2024-03-07T11:21:43;99625.59;;;11.57;58.31
15646;BME280;7922;43.622;1.476;2024-03-07T11:24:08;99662.22;;;12.01;57.75
15646;BME280;7922;43.622;1.476;2024-03-07T11:26:33;99667.22;;;12.07;57.71
15646;BME280;7922;43.622;1.476;2024-03-07T11:28:59;99611.34;;;11.75;57.38
15646;BME280;7922;43.622;1.476;2024-03-07T11:31:27;99627.38;;;11.91;57.18
15646;BME280;7922;43.622;1.476;2024-03-07T11:34:11;99668.97;;;12.56;57.18
15646;BME280;7922;43.622;1.476;2024-03-07T11:36:47;99669.94;;;12.55;56.55
15646;BME280;7922;43.622;1.476;2024-03-07T11:39:41;99632.38;;;12.45;56.89
15646;BME280;7922;43.622;1.476;2024-03-07T11:42:08;99624.41;;;12.29;57.10
15646;BME280;7922;43.622;1.476;2024-03-07T11:44:34;99565.06;;;11.98;56.32
15646;BME280;7922;43.622;1.476;2024-03-07T11:46:59;99535.31;;;12.08;56.25
15646;BME280;7922;43.622;1.476;2024-03-07T11:49:24;99608.34;;;12.78;56.74
15646;BME280;7922;43.622;1.476;2024-03-07T11:51:49;99529.25;;;12.21;56.35
15646;BME280;7922;43.622;1.476;2024-03-07T11:54:15;99571.38;;;12.43;56.24
15646;BME280;7922;43.622;1.476;2024-03-07T11:56:40;99569.38;;;12.63;56.75
15646;BME280;7922;43.622;1.476;2024-03-07T11:59:05;99542.78;;;12.79;56.40
15646;BME280;7922;43.622;1.476;2024-03-07T12:01:31;99544.53;;;12.94;56.01
15646;BME280;7922;43.622;1.476;2024-03-07T12:03:56;99585.03;;;13.13;56.39
15646;BME280;7922;43.622;1.476;2024-03-07T12:06:21;99543.94;;;12.89;56.69
15646;BME280;7922;43.622;1.476;2024-03-07T12:08:47;99526.88;;;12.93;56.11
15646;BME280;7922;43.622;1.476;2024-03-07T12:11:12;99553.81;;;12.87;56.40
15646;BME280;7922;43.622;1.476;2024-03-07T12:13:37;99530.78;;;12.71;56.38
15646;BME280;7922;43.622;1.476;2024-03-07T12:16:03;99514.47;;;12.47;56.73
15646;BME280;7922;43.622;1.476;2024-03-07T12:18:29;99551.22;;;12.71;56.90
15646;BME280;7922;43.622;1.476;2024-03-07T12:20:54;99441.63;;;12.21;56.42
15646;BME280;7922;43.622;1.476;2024-03-07T12:23:22;99516.84;;;12.68;57.23
15646;BME280;7922;43.622;1.476;2024-03-07T12:25:59;99555.28;;;12.76;55.50
15646;BME280;7922;43.622;1.476;2024-03-07T12:28:24;99529.03;;;12.86;56.18
15646;BME280;7922;43.622;1.476;2024-03-07T12:30:51;99416.94;;;12.19;55.48
15646;BME280;7922;43.622;1.476;2024-03-07T12:33:18;99464.44;;;12.40;55.81
15646;BME280;7922;43.622;1.476;2024-03-07T12:35:45;99523.69;;;12.72;56.05
15646;BME280;7922;43.622;1.476;2024-03-07T12:38:11;99421.78;;;12.27;56.08
15646;BME280;7922;43.622;1.476;2024-03-07T12:40:37;99538.25;;;12.95;55.80
15646;BME280;7922;43.622;1.476;2024-03-07T12:43:02;99536.41;;;12.81;55.24
15646;BME280;7922;43.622;1.476;2024-03-07T12:45:37;99483.78;;;12.58;55.04
15646;BME280;7922;43.622;1.476;2024-03-07T12:48:02;99413.44;;;12.19;54.48
15646;BME280;7922;43.622;1.476;2024-03-07T12:50:28;99484.44;;;12.61;55.49
15646;BME280;7922;43.622;1.476;2024-03-07T12:52:53;99486.53;;;12.70;55.32
15646;BME280;7922;43.622;1.476;2024-03-07T12:55:18;99501.50;;;12.87;54.93
15646;BME280;7922;43.622;1.476;2024-03-07T12:57:44;99503.13;;;12.90;55.01
15646;BME280;7922;43.622;1.476;2024-03-07T13:00:11;99425.66;;;12.51;55.08
15646;BME280;7922;43.622;1.476;2024-03-07T13:02:36;99407.84;;;12.53;54.72
15646;BME280;7922;43.622;1.476;2024-03-07T13:05:01;99494.78;;;13.10;55.45
15646;BME280;7922;43.622;1.476;2024-03-07T13:07:27;99479.41;;;13.01;55.26